sensor_id;sensor_type;location;lat;lon;timestamp;temperature;humidity
21678;DHT22;11000;50.360;7.582;2023-04-06T00:00:20;4.50;99.90
21678;DHT22;11000;50.360;7.582;2023-04-06T00:02:41;4.50;99.90
21678;DHT22;11000;50.360;7.582;2023-04-06T00:05:02;4.60;99.90
21678;DHT22;11000;50.360;7.582;2023-04-06T00:07:23;4.70;99.90
21678;DHT22;11000;50.360;7.582;2023-04-06T00:09:43;4.60;99.90
21678;DHT22;11000;50.360;7.582;2023-04-06T00:12:04;4.50;99.90
21678;DHT22;11000;50.360;7.582;2023-04-06T00:14:25;4.40;99.90
21678;DHT22;11000;50.360;7.582;2023-04-06T00:16:45;4.50;99.90
21678;DHT22;11000;50.360;7.582;2023-04-06T00:19:05;4.50;99.90
21678;DHT22;11000;50.360;7.582;2023-04-06T00:21:26;4.50;99.90
21678;DHT22;11000;50.360;7.582;2023-04-06T00:23:47;4.10;99.90
21678;DHT22;11000;50.360;7.582;2023-04-06T00:26:10;4.00;99.90
21678;DHT22;11000;50.360;7.582;2023-04-06T00:28:31;4.00;99.90
21678;DHT22;11000;50.360;7.582;2023-04-06T00:30:52;3.80;99.90
21678;DHT22;11000;50.360;7.582;2023-04-06T00:33:14;3.80;99.90
21678;DHT22;11000;50.360;7.582;2023-04-06T00:35:34;3.80;99.90
21678;DHT22;11000;50.360;7.582;2023-04-06T00:37:55;3.70;99.90
21678;DHT22;11000;50.360;7.582;2023-04-06T00:40:16;3.60;99.90
21678;DHT22;11000;50.360;7.582;2023-04-06T00:42:36;3.50;99.90
21678;DHT22;11000;50.360;7.582;2023-04-06T00:44:59;3.50;99.90
21678;DHT22;11000;50.360;7.582;2023-04-06T00:47:20;3.50;99.90
21678;DHT22;11000;50.360;7.582;2023-04-06T00:49:41;3.50;99.90
21678;DHT22;11000;50.360;7.582;2023-04-06T00:52:02;3.40;99.90
21678;DHT22;11000;50.360;7.582;2023-04-06T00:54:22;3.40;99.90
21678;DHT22;11000;50.360;7.582;2023-04-06T00:56:43;3.40;99.90
21678;DHT22;11000;50.360;7.582;2023-04-06T00:59:04;3.40;99.90
21678;DHT22;11000;50.360;7.582;2023-04-06T01:01:24;3.40;99.90
21678;DHT22;11000;50.360;7.582;2023-04-06T01:03:45;3.50;99.90
21678;DHT22;11000;50.360;7.582;2023-04-06T01:06:09;3.40;99.90
21678;DHT22;11000;50.360;7.582;2023-04-06T01:08:29;3.40;99.90
21678;DHT22;11000;50.360;7.582;2023-04-06T01:10:50;3.40;99.90
21678;DHT22;11000;50.360;7.582;2023-04-06T01:13:10;3.40;99.90
21678;DHT22;11000;50.360;7.582;2023-04-06T01:15:33;3.50;99.90
21678;DHT22;11000;50.360;7.582;2023-04-06T01:17:55;3.70;99.90
21678;DHT22;11000;50.360;7.582;2023-04-06T01:20:16;3.70;99.90
21678;DHT22;11000;50.360;7.582;2023-04-06T01:22:36;3.80;99.90
21678;DHT22;11000;50.360;7.582;2023-04-06T01:24:57;3.80;99.90
21678;DHT22;11000;50.360;7.582;2023-04-06T01:27:17;3.90;99.90
21678;DHT22;11000;50.360;7.582;2023-04-06T01:29:38;3.80;99.90
21678;DHT22;11000;50.360;7.582;2023-04-06T01:32:01;3.70;99.90
21678;DHT22;11000;50.360;7.582;2023-04-06T01:34:22;3.70;99.90
21678;DHT22;11000;50.360;7.582;2023-04-06T01:36:42;3.80;99.90
21678;DHT22;11000;50.360;7.582;2023-04-06T01:39:03;3.80;99.90
21678;DHT22;11000;50.360;7.582;2023-04-06T01:41:23;3.70;99.90
21678;DHT22;11000;50.360;7.582;2023-04-06T01:43:44;3.70;99.90
21678;DHT22;11000;50.360;7.582;2023-04-06T01:46:05;3.70;99.90
21678;DHT22;11000;50.360;7.582;2023-04-06T01:48:26;3.70;99.90
21678;DHT22;11000;50.360;7.582;2023-04-06T01:50:47;3.70;99.90
21678;DHT22;11000;50.360;7.582;2023-04-06T01:53:08;3.70;99.90
21678;DHT22;11000;50.360;7.582;2023-04-06T01:55:28;3.50;99.90
21678;DHT22;11000;50.360;7.582;2023-04-06T01:57:49;3.50;99.90
21678;DHT22;11000;50.360;7.582;2023-04-06T02:00:10;3.50;99.90
21678;DHT22;11000;50.360;7.582;2023-04-06T02:02:30;3.50;99.90
21678;DHT22;11000;50.360;7.582;2023-04-06T02:04:51;3.50;99.90
21678;DHT22;11000;50.360;7.582;2023-04-06T02:07:11;3.50;99.90
21678;DHT22;11000;50.360;7.582;2023-04-06T02:09:32;3.40;99.90
21678;DHT22;11000;50.360;7.582;2023-04-06T02:11:53;3.40;99.90
21678;DHT22;11000;50.360;7.582;2023-04-06T02:14:16;3.40;99.90
21678;DHT22;11000;50.360;7.582;2023-04-06T02:16:37;3.40;99.90
21678;DHT22;11000;50.360;7.582;2023-04-06T02:18:57;3.40;99.90
21678;DHT22;11000;50.360;7.582;2023-04-06T02:21:18;3.40;99.90
21678;DHT22;11000;50.360;7.582;2023-04-06T02:23:40;3.30;99.90
21678;DHT22;11000;50.360;7.582;2023-04-06T02:26:00;3.30;99.90
21678;DHT22;11000;50.360;7.582;2023-04-06T02:28:21;3.30;99.90
21678;DHT22;11000;50.360;7.582;2023-04-06T02:30:41;3.30;99.90
21678;DHT22;11000;50.360;7.582;2023-04-06T02:33:02;3.30;99.90
21678;DHT22;11000;50.360;7.582;2023-04-06T02:35:24;3.20;99.90
21678;DHT22;11000;50.360;7.582;2023-04-06T02:37:45;3.20;99.90
21678;DHT22;11000;50.360;7.582;2023-04-06T02:40:06;3.20;99.90
21678;DHT22;11000;50.360;7.582;2023-04-06T02:42:26;3.10;99.90
21678;DHT22;11000;50.360;7.582;2023-04-06T02:44:47;3.10;99.90
21678;DHT22;11000;50.360;7.582;2023-04-06T02:47:08;3.10;99.90
21678;DHT22;11000;50.360;7.582;2023-04-06T02:49:29;3.10;99.90
21678;DHT22;11000;50.360;7.582;2023-04-06T02:51:49;3.10;99.90
21678;DHT22;11000;50.360;7.582;2023-04-06T02:54:10;3.10;99.90
21678;DHT22;11000;50.360;7.582;2023-04-06T02:56:30;3.00;99.90
21678;DHT22;11000;50.360;7.582;2023-04-06T02:58:51;3.00;99.90
21678;DHT22;11000;50.360;7.582;2023-04-06T03:01:11;3.00;99.90
21678;DHT22;11000;50.360;7.582;2023-04-06T03:03:32;3.00;99.90
21678;DHT22;11000;50.360;7.582;2023-04-06T03:05:52;2.80;99.90
21678;DHT22;11000;50.360;7.582;2023-04-06T03:08:14;2.80;99.90
21678;DHT22;11000;50.360;7.582;2023-04-06T03:10:35;2.70;99.90
21678;DHT22;11000;50.360;7.582;2023-04-06T03:12:56;2.60;99.90
21678;DHT22;11000;50.360;7.582;2023-04-06T03:15:16;2.60;99.90
21678;DHT22;11000;50.360;7.582;2023-04-06T03:17:37;2.70;99.90
21678;DHT22;11000;50.360;7.582;2023-04-06T03:19:57;2.70;99.90
21678;DHT22;11000;50.360;7.582;2023-04-06T03:22:19;2.70;99.90
21678;DHT22;11000;50.360;7.582;2023-04-06T03:24:39;2.70;99.90
21678;DHT22;11000;50.360;7.582;2023-04-06T03:27:00;2.70;99.90
21678;DHT22;11000;50.360;7.582;2023-04-06T03:29:21;2.60;99.90
21678;DHT22;11000;50.360;7.582;2023-04-06T03:31:41;2.50;99.90
21678;DHT22;11000;50.360;7.582;2023-04-06T03:34:02;2.50;99.90
21678;DHT22;11000;50.360;7.582;2023-04-06T03:36:22;2.40;99.90
21678;DHT22;11000;50.360;7.582;2023-04-06T03:38:43;2.40;99.90
21678;DHT22;11000;50.360;7.582;2023-04-06T03:41:03;2.40;99.90
21678;DHT22;11000;50.360;7.582;2023-04-06T03:43:24;2.40;99.90
21678;DHT22;11000;50.360;7.582;2023-04-06T03:45:44;2.40;99.90
21678;DHT22;11000;50.360;7.582;2023-04-06T03:48:05;2.40;99.90
21678;DHT22;11000;50.360;7.582;2023-04-06T03:50:26;2.50;99.90
21678;DHT22;11000;50.360;7.582;2023-04-06T03:52:46;2.50;99.90
21678;DHT22;11000;50.360;7.582;2023-04-06T03:55:07;2.40;99.90
21678;DHT22;11000;50.360;7.582;2023-04-06T03:57:28;2.50;99.90
21678;DHT22;11000;50.360;7.582;2023-04-06T03:59:48;2.50;99.90
21678;DHT22;11000;50.360;7.582;2023-04-06T04:02:09;2.50;99.90
21678;DHT22;11000;50.360;7.582;2023-04-06T04:04:29;2.40;99.90
21678;DHT22;11000;50.360;7.582;2023-04-06T04:06:50;2.40;99.90
21678;DHT22;11000;50.360;7.582;2023-04-06T04:09:10;2.40;99.90
21678;DHT22;11000;50.360;7.582;2023-04-06T04:11:31;2.40;99.90
21678;DHT22;11000;50.360;7.582;2023-04-06T04:13:51;2.20;99.90
21678;DHT22;11000;50.360;7.582;2023-04-06T04:16:12;2.10;99.90
21678;DHT22;11000;50.360;7.582;2023-04-06T04:18:32;2.00;99.90
21678;DHT22;11000;50.360;7.582;2023-04-06T04:20:53;2.00;99.90
21678;DHT22;11000;50.360;7.582;2023-04-06T04:23:13;2.00;99.90
21678;DHT22;11000;50.360;7.582;2023-04-06T04:25:34;2.10;99.90
21678;DHT22;11000;50.360;7.582;2023-04-06T04:27:54;2.10;99.90
21678;DHT22;11000;50.360;7.582;2023-04-06T04:30:15;2.10;99.90
21678;DHT22;11000;50.360;7.582;2023-04-06T04:32:36;2.10;99.90
21678;DHT22;11000;50.360;7.582;2023-04-06T04:34:56;2.10;99.90
21678;DHT22;11000;50.360;7.582;2023-04-06T04:37:17;2.00;99.90
21678;DHT22;11000;50.360;7.582;2023-04-06T04:39:37;2.10;99.90
21678;DHT22;11000;50.360;7.582;2023-04-06T04:41:58;2.10;99.90
21678;DHT22;11000;50.360;7.582;2023-04-06T04:44:19;2.20;99.90
21678;DHT22;11000;50.360;7.582;2023-04-06T04:46:40;2.20;99.90
21678;DHT22;11000;50.360;7.582;2023-04-06T04:49:01;2.20;99.90
21678;DHT22;11000;50.360;7.582;2023-04-06T04:51:22;2.10;99.90
21678;DHT22;11000;50.360;7.582;2023-04-06T04:53:42;2.10;99.90
21678;DHT22;11000;50.360;7.582;2023-04-06T04:56:03;2.10;99.90
21678;DHT22;11000;50.360;7.582;2023-04-06T04:58:24;2.10;99.90
21678;DHT22;11000;50.360;7.582;2023-04-06T05:00:44;2.10;99.90
21678;DHT22;11000;50.360;7.582;2023-04-06T05:03:05;2.10;99.90
21678;DHT22;11000;50.360;7.582;2023-04-06T05:05:26;2.10;99.90
21678;DHT22;11000;50.360;7.582;2023-04-06T05:07:46;2.20;99.90
21678;DHT22;11000;50.360;7.582;2023-04-06T05:10:07;2.20;99.90
21678;DHT22;11000;50.360;7.582;2023-04-06T05:12:28;2.20;99.90
21678;DHT22;11000;50.360;7.582;2023-04-06T05:14:49;2.30;99.90
21678;DHT22;11000;50.360;7.582;2023-04-06T05:17:10;2.10;99.90
21678;DHT22;11000;50.360;7.582;2023-04-06T05:19:30;2.10;99.90
21678;DHT22;11000;50.360;7.582;2023-04-06T05:21:51;2.20;99.90
21678;DHT22;11000;50.360;7.582;2023-04-06T05:24:11;2.20;99.90
21678;DHT22;11000;50.360;7.582;2023-04-06T05:26:32;2.30;99.90
21678;DHT22;11000;50.360;7.582;2023-04-06T05:28:53;2.20;99.90
21678;DHT22;11000;50.360;7.582;2023-04-06T05:31:14;2.30;99.90
21678;DHT22;11000;50.360;7.582;2023-04-06T05:33:36;2.40;99.90
21678;DHT22;11000;50.360;7.582;2023-04-06T05:35:57;2.40;99.90
21678;DHT22;11000;50.360;7.582;2023-04-06T05:38:18;2.40;99.90
21678;DHT22;11000;50.360;7.582;2023-04-06T05:40:38;2.40;99.90
21678;DHT22;11000;50.360;7.582;2023-04-06T05:43:01;2.50;99.90
21678;DHT22;11000;50.360;7.582;2023-04-06T05:45:22;2.50;99.90
21678;DHT22;11000;50.360;7.582;2023-04-06T05:47:44;2.50;99.90
21678;DHT22;11000;50.360;7.582;2023-04-06T05:50:05;2.50;99.90
21678;DHT22;11000;50.360;7.582;2023-04-06T05:52:25;2.60;99.90
21678;DHT22;11000;50.360;7.582;2023-04-06T05:54:46;2.60;99.90
21678;DHT22;11000;50.360;7.582;2023-04-06T05:57:06;2.70;99.90
21678;DHT22;11000;50.360;7.582;2023-04-06T05:59:27;2.70;99.90
21678;DHT22;11000;50.360;7.582;2023-04-06T06:01:47;2.80;99.90
21678;DHT22;11000;50.360;7.582;2023-04-06T06:04:08;2.80;99.90
21678;DHT22;11000;50.360;7.582;2023-04-06T06:06:29;2.90;99.90
21678;DHT22;11000;50.360;7.582;2023-04-06T06:08:52;3.00;99.90
21678;DHT22;11000;50.360;7.582;2023-04-06T06:11:13;3.00;99.90
21678;DHT22;11000;50.360;7.582;2023-04-06T06:13:33;3.00;99.90
21678;DHT22;11000;50.360;7.582;2023-04-06T06:15:54;2.90;99.90
21678;DHT22;11000;50.360;7.582;2023-04-06T06:18:15;2.90;99.90
21678;DHT22;11000;50.360;7.582;2023-04-06T06:20:36;3.00;99.90
21678;DHT22;11000;50.360;7.582;2023-04-06T06:22:56;3.20;99.90
21678;DHT22;11000;50.360;7.582;2023-04-06T06:25:17;3.60;99.90
21678;DHT22;11000;50.360;7.582;2023-04-06T06:27:38;4.10;99.90
21678;DHT22;11000;50.360;7.582;2023-04-06T06:29:58;4.50;99.90
21678;DHT22;11000;50.360;7.582;2023-04-06T06:32:19;4.80;99.90
21678;DHT22;11000;50.360;7.582;2023-04-06T06:34:40;5.20;99.90
21678;DHT22;11000;50.360;7.582;2023-04-06T06:37:01;5.50;99.90
21678;DHT22;11000;50.360;7.582;2023-04-06T06:39:22;5.80;99.90
21678;DHT22;11000;50.360;7.582;2023-04-06T06:41:43;5.90;99.90
21678;DHT22;11000;50.360;7.582;2023-04-06T06:44:03;6.20;99.90
21678;DHT22;11000;50.360;7.582;2023-04-06T06:46:24;6.20;99.90
21678;DHT22;11000;50.360;7.582;2023-04-06T06:48:44;6.30;99.90
21678;DHT22;11000;50.360;7.582;2023-04-06T06:51:05;6.50;99.90
21678;DHT22;11000;50.360;7.582;2023-04-06T06:53:26;6.80;99.90
21678;DHT22;11000;50.360;7.582;2023-04-06T06:55:46;7.00;99.90
21678;DHT22;11000;50.360;7.582;2023-04-06T06:58:09;7.20;99.90
21678;DHT22;11000;50.360;7.582;2023-04-06T07:00:29;7.40;99.90
21678;DHT22;11000;50.360;7.582;2023-04-06T07:02:50;7.60;99.90
21678;DHT22;11000;50.360;7.582;2023-04-06T07:05:11;7.70;99.90
21678;DHT22;11000;50.360;7.582;2023-04-06T07:07:32;7.80;99.90
21678;DHT22;11000;50.360;7.582;2023-04-06T07:09:52;8.00;99.90
21678;DHT22;11000;50.360;7.582;2023-04-06T07:12:13;8.20;99.90
21678;DHT22;11000;50.360;7.582;2023-04-06T07:14:33;7.90;99.90
21678;DHT22;11000;50.360;7.582;2023-04-06T07:16:54;7.40;99.90
21678;DHT22;11000;50.360;7.582;2023-04-06T07:19:15;7.70;99.90
21678;DHT22;11000;50.360;7.582;2023-04-06T07:21:35;7.80;99.90
21678;DHT22;11000;50.360;7.582;2023-04-06T07:23:56;7.20;99.90
21678;DHT22;11000;50.360;7.582;2023-04-06T07:26:16;7.00;99.90
21678;DHT22;11000;50.360;7.582;2023-04-06T07:28:37;7.20;99.90
21678;DHT22;11000;50.360;7.582;2023-04-06T07:30:57;7.60;99.90
21678;DHT22;11000;50.360;7.582;2023-04-06T07:33:18;8.20;99.90
21678;DHT22;11000;50.360;7.582;2023-04-06T07:35:38;7.60;99.90
21678;DHT22;11000;50.360;7.582;2023-04-06T07:37:59;7.70;99.90
21678;DHT22;11000;50.360;7.582;2023-04-06T07:40:20;8.00;99.90
21678;DHT22;11000;50.360;7.582;2023-04-06T07:42:40;8.70;99.90
21678;DHT22;11000;50.360;7.582;2023-04-06T07:45:01;8.70;99.90
21678;DHT22;11000;50.360;7.582;2023-04-06T07:47:22;8.80;99.90
21678;DHT22;11000;50.360;7.582;2023-04-06T07:49:43;9.30;99.90
21678;DHT22;11000;50.360;7.582;2023-04-06T07:52:03;8.50;99.90
21678;DHT22;11000;50.360;7.582;2023-04-06T07:54:24;8.90;99.90
21678;DHT22;11000;50.360;7.582;2023-04-06T07:56:44;8.90;99.90
21678;DHT22;11000;50.360;7.582;2023-04-06T07:59:05;9.40;99.90
21678;DHT22;11000;50.360;7.582;2023-04-06T08:01:28;9.80;99.30
21678;DHT22;11000;50.360;7.582;2023-04-06T08:03:48;8.90;99.70
21678;DHT22;11000;50.360;7.582;2023-04-06T08:06:09;9.70;99.90
21678;DHT22;11000;50.360;7.582;2023-04-06T08:08:30;10.40;97.90
21678;DHT22;11000;50.360;7.582;2023-04-06T08:10:51;10.50;94.70
21678;DHT22;11000;50.360;7.582;2023-04-06T08:13:11;10.00;95.10
21678;DHT22;11000;50.360;7.582;2023-04-06T08:15:32;10.00;95.50
21678;DHT22;11000;50.360;7.582;2023-04-06T08:17:52;9.80;96.10
21678;DHT22;11000;50.360;7.582;2023-04-06T08:20:13;10.30;95.70
21678;DHT22;11000;50.360;7.582;2023-04-06T08:22:34;10.60;95.40
21678;DHT22;11000;50.360;7.582;2023-04-06T08:24:54;11.10;94.30
21678;DHT22;11000;50.360;7.582;2023-04-06T08:27:15;11.00;93.00
21678;DHT22;11000;50.360;7.582;2023-04-06T08:29:35;11.10;92.40
21678;DHT22;11000;50.360;7.582;2023-04-06T08:31:56;11.40;91.40
21678;DHT22;11000;50.360;7.582;2023-04-06T08:34:17;10.80;91.90
21678;DHT22;11000;50.360;7.582;2023-04-06T08:36:37;11.10;92.90
21678;DHT22;11000;50.360;7.582;2023-04-06T08:38:59;10.70;91.80
21678;DHT22;11000;50.360;7.582;2023-04-06T08:41:20;10.70;91.90
21678;DHT22;11000;50.360;7.582;2023-04-06T08:43:47;10.90;92.00
21678;DHT22;11000;50.360;7.582;2023-04-06T08:46:08;10.80;92.60
21678;DHT22;11000;50.360;7.582;2023-04-06T08:48:30;11.10;92.20
21678;DHT22;11000;50.360;7.582;2023-04-06T08:50:51;10.90;91.50
21678;DHT22;11000;50.360;7.582;2023-04-06T08:53:12;10.80;93.20
21678;DHT22;11000;50.360;7.582;2023-04-06T08:55:34;10.90;93.30
21678;DHT22;11000;50.360;7.582;2023-04-06T08:57:55;11.10;92.40
21678;DHT22;11000;50.360;7.582;2023-04-06T09:00:16;11.30;91.10
21678;DHT22;11000;50.360;7.582;2023-04-06T09:02:43;11.40;91.70
21678;DHT22;11000;50.360;7.582;2023-04-06T09:05:04;11.50;92.20
21678;DHT22;11000;50.360;7.582;2023-04-06T09:07:25;11.50;91.10
21678;DHT22;11000;50.360;7.582;2023-04-06T09:09:45;11.50;91.40
21678;DHT22;11000;50.360;7.582;2023-04-06T09:12:08;11.00;92.20
21678;DHT22;11000;50.360;7.582;2023-04-06T09:14:36;11.10;93.00
21678;DHT22;11000;50.360;7.582;2023-04-06T09:16:57;11.30;92.90
21678;DHT22;11000;50.360;7.582;2023-04-06T09:19:18;11.40;93.30
21678;DHT22;11000;50.360;7.582;2023-04-06T09:21:39;11.70;93.20
21678;DHT22;11000;50.360;7.582;2023-04-06T09:24:01;11.90;93.90
21678;DHT22;11000;50.360;7.582;2023-04-06T09:26:22;12.10;93.20
21678;DHT22;11000;50.360;7.582;2023-04-06T09:28:57;12.20;90.50
21678;DHT22;11000;50.360;7.582;2023-04-06T09:31:26;12.20;91.10
21678;DHT22;11000;50.360;7.582;2023-04-06T09:33:47;12.10;90.10
21678;DHT22;11000;50.360;7.582;2023-04-06T09:36:08;11.90;90.30
21678;DHT22;11000;50.360;7.582;2023-04-06T09:38:31;12.00;91.30
21678;DHT22;11000;50.360;7.582;2023-04-06T09:40:52;12.10;91.30
21678;DHT22;11000;50.360;7.582;2023-04-06T09:43:12;12.20;91.30
21678;DHT22;11000;50.360;7.582;2023-04-06T09:45:43;12.30;91.30
21678;DHT22;11000;50.360;7.582;2023-04-06T09:48:04;12.70;92.00
21678;DHT22;11000;50.360;7.582;2023-04-06T09:50:26;12.90;88.60
21678;DHT22;11000;50.360;7.582;2023-04-06T09:52:49;13.30;86.00
21678;DHT22;11000;50.360;7.582;2023-04-06T09:55:10;13.40;81.80
21678;DHT22;11000;50.360;7.582;2023-04-06T09:57:50;13.40;81.50
21678;DHT22;11000;50.360;7.582;2023-04-06T10:00:13;13.30;81.00
21678;DHT22;11000;50.360;7.582;2023-04-06T10:05:16;13.50;78.90
21678;DHT22;11000;50.360;7.582;2023-04-06T10:07:39;13.40;79.50
21678;DHT22;11000;50.360;7.582;2023-04-06T10:10:02;13.40;79.00
21678;DHT22;11000;50.360;7.582;2023-04-06T10:12:23;13.50;79.50
21678;DHT22;11000;50.360;7.582;2023-04-06T10:14:44;13.50;79.30
21678;DHT22;11000;50.360;7.582;2023-04-06T10:17:05;13.50;77.90
21678;DHT22;11000;50.360;7.582;2023-04-06T10:19:29;13.60;79.10
21678;DHT22;11000;50.360;7.582;2023-04-06T10:21:55;13.70;77.00
21678;DHT22;11000;50.360;7.582;2023-04-06T10:24:18;13.80;73.50
21678;DHT22;11000;50.360;7.582;2023-04-06T10:26:38;13.80;73.20
21678;DHT22;11000;50.360;7.582;2023-04-06T10:29:03;13.70;73.20
21678;DHT22;11000;50.360;7.582;2023-04-06T10:31:25;13.70;74.20
21678;DHT22;11000;50.360;7.582;2023-04-06T10:33:56;13.90;74.00
21678;DHT22;11000;50.360;7.582;2023-04-06T10:36:26;14.00;74.00
21678;DHT22;11000;50.360;7.582;2023-04-06T10:38:47;14.00;73.40
21678;DHT22;11000;50.360;7.582;2023-04-06T10:41:11;14.00;73.40
21678;DHT22;11000;50.360;7.582;2023-04-06T10:43:37;14.00;73.10
21678;DHT22;11000;50.360;7.582;2023-04-06T10:46:00;14.00;72.00
21678;DHT22;11000;50.360;7.582;2023-04-06T10:48:20;14.10;72.80
21678;DHT22;11000;50.360;7.582;2023-04-06T10:50:50;14.20;72.80
21678;DHT22;11000;50.360;7.582;2023-04-06T10:53:11;14.20;72.10
21678;DHT22;11000;50.360;7.582;2023-04-06T10:55:32;14.20;71.90
21678;DHT22;11000;50.360;7.582;2023-04-06T10:57:52;14.20;71.50
21678;DHT22;11000;50.360;7.582;2023-04-06T11:00:13;14.30;71.00
21678;DHT22;11000;50.360;7.582;2023-04-06T11:02:37;14.30;70.70
21678;DHT22;11000;50.360;7.582;2023-04-06T11:05:00;14.30;70.70
21678;DHT22;11000;50.360;7.582;2023-04-06T11:07:25;14.30;69.50
21678;DHT22;11000;50.360;7.582;2023-04-06T11:09:50;14.30;68.50
21678;DHT22;11000;50.360;7.582;2023-04-06T11:12:21;14.50;68.20
21678;DHT22;11000;50.360;7.582;2023-04-06T11:14:59;14.70;67.00
21678;DHT22;11000;50.360;7.582;2023-04-06T11:17:32;14.90;66.70
21678;DHT22;11000;50.360;7.582;2023-04-06T11:19:53;15.00;66.00
21678;DHT22;11000;50.360;7.582;2023-04-06T11:22:13;15.30;64.90
21678;DHT22;11000;50.360;7.582;2023-04-06T11:24:34;15.50;63.80
21678;DHT22;11000;50.360;7.582;2023-04-06T11:26:56;15.60;63.00
21678;DHT22;11000;50.360;7.582;2023-04-06T11:29:18;15.70;63.30
21678;DHT22;11000;50.360;7.582;2023-04-06T11:31:47;15.70;62.80
21678;DHT22;11000;50.360;7.582;2023-04-06T11:34:12;15.90;62.10
21678;DHT22;11000;50.360;7.582;2023-04-06T11:36:32;15.70;61.60
21678;DHT22;11000;50.360;7.582;2023-04-06T11:38:53;15.70;62.60
21678;DHT22;11000;50.360;7.582;2023-04-06T11:41:13;15.60;63.00
21678;DHT22;11000;50.360;7.582;2023-04-06T11:43:34;15.60;63.40
21678;DHT22;11000;50.360;7.582;2023-04-06T11:46:01;15.50;62.30
21678;DHT22;11000;50.360;7.582;2023-04-06T11:48:22;15.60;63.80
21678;DHT22;11000;50.360;7.582;2023-04-06T11:50:46;15.60;63.50
21678;DHT22;11000;50.360;7.582;2023-04-06T11:53:07;15.50;62.70
21678;DHT22;11000;50.360;7.582;2023-04-06T11:55:28;15.30;62.00
21678;DHT22;11000;50.360;7.582;2023-04-06T11:57:49;15.20;63.30
21678;DHT22;11000;50.360;7.582;2023-04-06T12:00:11;15.20;62.60
21678;DHT22;11000;50.360;7.582;2023-04-06T12:02:32;15.30;62.70
21678;DHT22;11000;50.360;7.582;2023-04-06T12:04:52;15.40;63.70
21678;DHT22;11000;50.360;7.582;2023-04-06T12:07:13;15.50;64.00
21678;DHT22;11000;50.360;7.582;2023-04-06T12:09:34;15.40;63.50
21678;DHT22;11000;50.360;7.582;2023-04-06T12:11:55;15.50;63.60
21678;DHT22;11000;50.360;7.582;2023-04-06T12:14:16;15.50;62.80
21678;DHT22;11000;50.360;7.582;2023-04-06T12:16:36;15.60;62.60
21678;DHT22;11000;50.360;7.582;2023-04-06T12:18:57;15.50;62.20
21678;DHT22;11000;50.360;7.582;2023-04-06T12:21:17;15.40;62.70
21678;DHT22;11000;50.360;7.582;2023-04-06T12:23:38;15.30;63.30
21678;DHT22;11000;50.360;7.582;2023-04-06T12:25:58;15.20;62.80
21678;DHT22;11000;50.360;7.582;2023-04-06T12:28:19;15.10;64.50
21678;DHT22;11000;50.360;7.582;2023-04-06T12:30:43;15.00;63.10
21678;DHT22;11000;50.360;7.582;2023-04-06T12:33:03;15.10;62.70
21678;DHT22;11000;50.360;7.582;2023-04-06T12:35:24;15.10;63.80
21678;DHT22;11000;50.360;7.582;2023-04-06T12:37:45;15.10;63.30
21678;DHT22;11000;50.360;7.582;2023-04-06T12:40:06;15.20;62.70
21678;DHT22;11000;50.360;7.582;2023-04-06T12:42:27;15.10;62.60
21678;DHT22;11000;50.360;7.582;2023-04-06T12:44:48;15.10;64.00
21678;DHT22;11000;50.360;7.582;2023-04-06T12:47:08;15.10;63.60
21678;DHT22;11000;50.360;7.582;2023-04-06T12:49:29;15.30;63.60
21678;DHT22;11000;50.360;7.582;2023-04-06T12:51:50;15.30;62.90
21678;DHT22;11000;50.360;7.582;2023-04-06T12:54:10;15.40;63.00
21678;DHT22;11000;50.360;7.582;2023-04-06T12:56:32;15.40;62.10
21678;DHT22;11000;50.360;7.582;2023-04-06T12:58:53;15.40;62.30
21678;DHT22;11000;50.360;7.582;2023-04-06T13:01:13;15.40;62.90
21678;DHT22;11000;50.360;7.582;2023-04-06T13:03:34;15.40;61.90
21678;DHT22;11000;50.360;7.582;2023-04-06T13:05:55;15.50;61.80
21678;DHT22;11000;50.360;7.582;2023-04-06T13:08:17;15.40;61.50
21678;DHT22;11000;50.360;7.582;2023-04-06T13:10:38;15.60;61.40
21678;DHT22;11000;50.360;7.582;2023-04-06T13:12:59;15.70;61.10
21678;DHT22;11000;50.360;7.582;2023-04-06T13:15:20;15.60;60.40
21678;DHT22;11000;50.360;7.582;2023-04-06T13:17:40;15.50;60.10
21678;DHT22;11000;50.360;7.582;2023-04-06T13:20:01;15.50;60.90
21678;DHT22;11000;50.360;7.582;2023-04-06T13:22:21;15.60;60.90
21678;DHT22;11000;50.360;7.582;2023-04-06T13:24:42;15.60;61.20
21678;DHT22;11000;50.360;7.582;2023-04-06T13:27:03;15.50;61.20
21678;DHT22;11000;50.360;7.582;2023-04-06T13:29:23;15.50;61.40
21678;DHT22;11000;50.360;7.582;2023-04-06T13:31:44;15.60;62.00
21678;DHT22;11000;50.360;7.582;2023-04-06T13:34:04;15.80;61.40
21678;DHT22;11000;50.360;7.582;2023-04-06T13:36:25;15.90;61.60
21678;DHT22;11000;50.360;7.582;2023-04-06T13:38:46;15.90;61.60
21678;DHT22;11000;50.360;7.582;2023-04-06T13:41:07;15.90;60.60
21678;DHT22;11000;50.360;7.582;2023-04-06T13:43:27;15.80;60.30
21678;DHT22;11000;50.360;7.582;2023-04-06T13:45:50;15.70;61.10
21678;DHT22;11000;50.360;7.582;2023-04-06T13:48:10;15.60;63.00
21678;DHT22;11000;50.360;7.582;2023-04-06T13:50:32;15.50;64.00
21678;DHT22;11000;50.360;7.582;2023-04-06T13:52:53;15.40;64.60
21678;DHT22;11000;50.360;7.582;2023-04-06T13:55:13;15.30;64.50
21678;DHT22;11000;50.360;7.582;2023-04-06T13:57:34;15.20;63.90
21678;DHT22;11000;50.360;7.582;2023-04-06T13:59:56;15.00;63.30
21678;DHT22;11000;50.360;7.582;2023-04-06T14:02:16;14.70;65.40
21678;DHT22;11000;50.360;7.582;2023-04-06T14:04:37;14.50;68.10
21678;DHT22;11000;50.360;7.582;2023-04-06T14:06:59;14.40;68.80
21678;DHT22;11000;50.360;7.582;2023-04-06T14:09:19;14.20;69.90
21678;DHT22;11000;50.360;7.582;2023-04-06T14:11:40;14.20;70.90
21678;DHT22;11000;50.360;7.582;2023-04-06T14:14:01;14.30;71.70
21678;DHT22;11000;50.360;7.582;2023-04-06T14:16:23;14.20;72.10
21678;DHT22;11000;50.360;7.582;2023-04-06T14:18:44;14.20;72.10
21678;DHT22;11000;50.360;7.582;2023-04-06T14:21:05;14.30;73.10
21678;DHT22;11000;50.360;7.582;2023-04-06T14:23:27;14.20;72.30
21678;DHT22;11000;50.360;7.582;2023-04-06T14:25:48;14.10;72.10
21678;DHT22;11000;50.360;7.582;2023-04-06T14:28:09;14.00;73.00
21678;DHT22;11000;50.360;7.582;2023-04-06T14:30:30;14.00;74.20
21678;DHT22;11000;50.360;7.582;2023-04-06T14:32:51;14.00;75.10
21678;DHT22;11000;50.360;7.582;2023-04-06T14:35:11;14.00;75.80
21678;DHT22;11000;50.360;7.582;2023-04-06T14:37:32;14.00;75.80
21678;DHT22;11000;50.360;7.582;2023-04-06T14:39:52;14.00;76.20
21678;DHT22;11000;50.360;7.582;2023-04-06T14:42:13;14.00;76.50
21678;DHT22;11000;50.360;7.582;2023-04-06T14:44:33;14.10;76.60
21678;DHT22;11000;50.360;7.582;2023-04-06T14:46:56;14.10;76.30
21678;DHT22;11000;50.360;7.582;2023-04-06T14:49:17;14.10;76.40
21678;DHT22;11000;50.360;7.582;2023-04-06T14:51:38;14.10;76.50
21678;DHT22;11000;50.360;7.582;2023-04-06T14:54:00;14.00;77.10
21678;DHT22;11000;50.360;7.582;2023-04-06T14:56:24;14.00;78.40
21678;DHT22;11000;50.360;7.582;2023-04-06T14:58:44;13.90;79.20
21678;DHT22;11000;50.360;7.582;2023-04-06T15:01:05;13.80;80.30
21678;DHT22;11000;50.360;7.582;2023-04-06T15:03:27;13.60;81.30